DAOI

Ech Cheliff Airport

Algeria
METAR DAOI 160500Z 07007KT CAVOK 08/07 Q1024
Observed Flight Rules
Dec-16 @ 05:00 UTC (52 minutes ago) Visual Flight Rules
Wind Visibility Clouds
70° at 7 knots 10,000+ meters
  • Clear skies
Temperatures Readings
Current 8°C / 46°F
Dewpoint 7°C / 45°F
Humidity 93%
Altimeter 30.24" Hg
Pressure 1024 hPa
Elevation 143
METAR DAOI 160500Z 07007KT CAVOK 08/07 Q1024
Observed Flight Rules
Dec-16 @ 05:00 UTC
(52 minutes ago)
VFR
Wind Visibility
70° at 7 knots 10,000+ meters
Clouds
  • Clear skies
Temperature Dewpoint
8°C / 46°F 7°C / 45°F
Humidity Altimeter Pressure
93% 30.24" Hg 1024 hPa